createdAt,value
2023-01-13T00:01:29.341Z,0.40
2023-01-13T00:03:51.365Z,0.90
2023-01-13T00:06:15.660Z,0.93
2023-01-13T00:08:37.224Z,0.70
2023-01-13T00:10:59.154Z,0.90
2023-01-13T00:13:26.831Z,0.80
2023-01-13T00:15:56.434Z,0.67
2023-01-13T00:18:18.009Z,0.90
2023-01-13T00:20:39.526Z,0.50
2023-01-13T00:23:01.543Z,1.10
2023-01-13T00:25:23.063Z,1.27
2023-01-13T00:27:44.609Z,0.60
2023-01-13T00:30:07.610Z,1.60
2023-01-13T00:32:29.246Z,1.00
2023-01-13T00:34:50.785Z,0.47
2023-01-13T00:37:14.727Z,1.57
2023-01-13T00:39:36.271Z,1.00
2023-01-13T00:42:16.121Z,0.40
2023-01-13T00:44:37.667Z,0.60
2023-01-13T00:46:59.262Z,1.47
2023-01-13T00:49:20.866Z,0.93
2023-01-13T00:51:42.447Z,0.87
2023-01-13T00:54:04.144Z,1.97
2023-01-13T00:56:39.581Z,0.50
2023-01-13T00:59:02.289Z,0.40
2023-01-13T01:01:25.328Z,0.60
2023-01-13T01:03:51.718Z,0.20
2023-01-13T01:06:16.606Z,0.50
2023-01-13T01:08:38.477Z,0.63
2023-01-13T01:11:12.135Z,0.83
2023-01-13T01:13:34.291Z,0.53
2023-01-13T01:15:56.358Z,1.03
2023-01-13T01:18:17.983Z,0.50
2023-01-13T01:20:39.660Z,0.70
2023-01-13T01:23:01.240Z,0.37
2023-01-13T01:25:22.815Z,1.53
2023-01-13T01:27:44.360Z,1.30
2023-01-13T01:30:06.542Z,1.23
2023-01-13T01:32:28.080Z,0.50
2023-01-13T01:34:51.501Z,0.93
2023-01-13T01:37:13.074Z,0.73
2023-01-13T01:39:34.700Z,2.37
2023-01-13T01:42:14.646Z,1.57
2023-01-13T01:44:42.140Z,1.80
2023-01-13T01:47:03.770Z,1.07
2023-01-13T01:49:29.672Z,1.70
2023-01-13T01:52:00.873Z,1.70
2023-01-13T01:54:28.544Z,1.33
2023-01-13T01:56:50.910Z,2.97
2023-01-13T01:59:13.478Z,1.57
2023-01-13T02:01:35.368Z,0.97
2023-01-13T02:04:05.436Z,1.10
2023-01-13T02:06:29.893Z,1.80
2023-01-13T02:08:53.078Z,1.27
2023-01-13T02:11:51.634Z,1.97
2023-01-13T02:14:13.307Z,1.47
2023-01-13T02:16:38.642Z,0.93
2023-01-13T02:19:39.096Z,0.83
2023-01-13T02:22:22.459Z,1.03
2023-01-13T02:25:20.026Z,1.30
2023-01-13T02:27:55.592Z,0.63
2023-01-13T02:30:49.614Z,0.97
2023-01-13T02:33:18.234Z,0.87
2023-01-13T02:36:05.945Z,1.27
2023-01-13T02:38:37.318Z,1.70
2023-01-13T02:41:29.619Z,0.63
2023-01-13T02:44:09.235Z,1.00
2023-01-13T02:46:36.448Z,0.80
2023-01-13T02:49:02.775Z,1.60
2023-01-13T02:51:27.567Z,1.37
2023-01-13T02:54:01.664Z,0.83
2023-01-13T02:56:24.630Z,0.47
2023-01-13T02:58:48.027Z,1.70
2023-01-13T03:01:09.799Z,0.50
2023-01-13T03:03:31.306Z,0.80
2023-01-13T03:06:00.337Z,0.93
2023-01-13T03:08:43.169Z,1.03
2023-01-13T03:11:14.115Z,0.83
2023-01-13T03:13:57.808Z,1.07
2023-01-13T03:16:27.830Z,1.80
2023-01-13T03:19:04.674Z,1.13
2023-01-13T03:21:39.803Z,0.97
2023-01-13T03:24:09.287Z,0.97
2023-01-13T03:26:40.778Z,0.93
2023-01-13T03:29:11.347Z,2.67
2023-01-13T03:31:37.749Z,3.60
2023-01-13T03:34:04.234Z,1.20
2023-01-13T03:36:29.725Z,0.70
2023-01-13T03:38:58.436Z,0.57
2023-01-13T03:41:29.761Z,1.03
2023-01-13T03:44:22.165Z,0.53
2023-01-13T03:46:59.171Z,0.60
2023-01-13T03:49:26.279Z,1.40
2023-01-13T03:51:53.638Z,1.77
2023-01-13T03:54:17.884Z,0.87
2023-01-13T03:56:45.233Z,0.70
2023-01-13T03:59:10.262Z,1.07
2023-01-13T04:01:54.703Z,0.43
2023-01-13T04:04:21.237Z,0.57
2023-01-13T04:07:01.438Z,1.23
2023-01-13T04:09:48.323Z,1.23
2023-01-13T04:12:28.223Z,0.50
2023-01-13T04:14:50.736Z,0.57
2023-01-13T04:17:12.348Z,2.43
2023-01-13T04:19:33.998Z,0.93
2023-01-13T04:21:55.432Z,1.37
2023-01-13T04:24:17.025Z,0.90
2023-01-13T04:26:38.490Z,2.30
2023-01-13T04:28:59.912Z,1.17
2023-01-13T04:31:21.608Z,1.50
2023-01-13T04:33:43.126Z,1.87
2023-01-13T04:36:04.904Z,1.70
2023-01-13T04:38:26.419Z,1.47
2023-01-13T04:40:48.312Z,0.87
2023-01-13T04:43:10.129Z,2.43
2023-01-13T04:45:31.837Z,1.57
2023-01-13T04:47:53.473Z,1.50
2023-01-13T04:50:19.378Z,2.27
2023-01-13T04:52:41.067Z,0.97
2023-01-13T04:55:02.514Z,2.63
2023-01-13T04:57:24.080Z,1.60
2023-01-13T04:59:45.549Z,0.40
2023-01-13T05:02:09.011Z,1.30
2023-01-13T05:04:30.520Z,2.33
2023-01-13T05:06:52.032Z,0.90
2023-01-13T05:09:15.641Z,1.73
2023-01-13T05:11:55.588Z,2.43
2023-01-13T05:14:35.399Z,1.10
2023-01-13T05:17:03.520Z,0.80
2023-01-13T05:19:24.953Z,0.87
2023-01-13T05:22:05.060Z,0.73
2023-01-13T05:24:45.147Z,2.20
2023-01-13T05:27:06.576Z,1.20
2023-01-13T05:29:28.019Z,1.03
2023-01-13T05:31:49.456Z,2.07
2023-01-13T05:34:10.886Z,0.53
2023-01-13T05:36:32.315Z,0.73
2023-01-13T05:38:53.727Z,0.60
2023-01-13T05:41:33.833Z,0.40
2023-01-13T05:43:55.277Z,2.43
2023-01-13T05:46:17.703Z,2.37
2023-01-13T05:48:42.196Z,1.87
2023-01-13T05:51:05.423Z,0.77
2023-01-13T05:53:27.280Z,3.43
2023-01-13T05:55:49.553Z,0.73
2023-01-13T05:58:12.868Z,1.70
2023-01-13T06:00:34.384Z,1.17
2023-01-13T06:02:55.835Z,0.53
2023-01-13T06:05:17.282Z,1.30
2023-01-13T06:07:38.716Z,1.60
2023-01-13T06:10:00.159Z,1.43
2023-01-13T06:12:21.589Z,0.30
2023-01-13T06:14:43.143Z,1.40
2023-01-13T06:17:04.541Z,3.47
2023-01-13T06:19:25.982Z,5.90
2023-01-13T06:21:48.592Z,0.27
2023-01-13T06:24:10.671Z,1.13
2023-01-13T06:26:38.019Z,0.17
2023-01-13T06:28:59.626Z,2.40
2023-01-13T06:31:21.529Z,1.03
2023-01-13T06:33:49.740Z,0.77
2023-01-13T06:36:19.334Z,1.33
2023-01-13T06:38:46.667Z,1.90
2023-01-13T06:41:08.896Z,0.33
2023-01-13T06:43:30.387Z,1.73
2023-01-13T06:45:56.359Z,1.03
2023-01-13T06:48:20.328Z,1.70
2023-01-13T06:50:42.315Z,2.20
2023-01-13T06:53:03.829Z,0.87
2023-01-13T06:55:25.312Z,0.60
2023-01-13T06:57:55.084Z,1.90
2023-01-13T07:00:16.865Z,0.43
2023-01-13T07:02:38.311Z,0.70
2023-01-13T07:04:59.779Z,2.17
2023-01-13T07:07:21.226Z,0.93
2023-01-13T07:09:42.662Z,2.63
2023-01-13T07:12:04.343Z,1.43
2023-01-13T07:14:44.668Z,0.57
2023-01-13T07:17:06.126Z,0.67
2023-01-13T07:19:27.558Z,1.47
2023-01-13T07:21:52.715Z,1.97
2023-01-13T07:24:14.289Z,1.93
2023-01-13T07:26:35.749Z,1.00
2023-01-13T07:28:58.144Z,1.33
2023-01-13T07:31:21.693Z,3.03
2023-01-13T07:33:43.461Z,2.40
2023-01-13T07:36:06.019Z,1.93
2023-01-13T07:38:27.982Z,0.80
2023-01-13T07:40:49.418Z,2.90
2023-01-13T07:43:31.556Z,1.50
2023-01-13T07:45:58.730Z,1.17
2023-01-13T07:48:20.386Z,3.10
2023-01-13T07:50:44.069Z,4.40
2023-01-13T07:53:05.732Z,2.87
2023-01-13T07:55:27.181Z,0.20
2023-01-13T07:57:48.722Z,0.80
2023-01-13T08:00:12.850Z,2.00
2023-01-13T08:02:34.748Z,1.10
2023-01-13T08:04:56.241Z,3.90
2023-01-13T08:07:17.721Z,1.80
2023-01-13T08:09:39.165Z,1.97
2023-01-13T08:12:19.418Z,2.30
2023-01-13T08:14:40.875Z,3.23
2023-01-13T08:17:02.345Z,3.40
2023-01-13T08:19:23.789Z,1.77
2023-01-13T08:21:45.199Z,2.57
2023-01-13T08:24:07.102Z,2.17
2023-01-13T08:26:28.510Z,1.80
2023-01-13T08:28:50.041Z,2.17
2023-01-13T08:31:16.914Z,3.70
2023-01-13T08:33:39.037Z,2.27
2023-01-13T08:36:09.597Z,3.00
2023-01-13T08:38:31.193Z,2.47
2023-01-13T08:40:52.792Z,3.33
2023-01-13T08:43:14.308Z,5.97
2023-01-13T08:45:36.160Z,2.03
2023-01-13T08:47:58.060Z,1.67
2023-01-13T08:50:19.660Z,2.07
2023-01-13T08:52:41.454Z,1.87
2023-01-13T08:55:03.182Z,2.13
2023-01-13T08:57:24.713Z,2.40
2023-01-13T08:59:46.587Z,1.57
2023-01-13T09:02:20.187Z,2.93
2023-01-13T09:04:41.871Z,1.33
2023-01-13T09:07:03.454Z,2.43
2023-01-13T09:09:27.574Z,2.73
2023-01-13T09:12:09.434Z,3.90
2023-01-13T09:14:33.121Z,2.63
2023-01-13T09:16:54.581Z,3.90
2023-01-13T09:19:16.027Z,6.73
2023-01-13T09:21:37.615Z,4.27
2023-01-13T09:23:59.407Z,4.67
2023-01-13T09:26:21.674Z,6.03
2023-01-13T09:28:43.195Z,5.43
2023-01-13T09:31:04.962Z,2.67
2023-01-13T09:33:45.056Z,2.87
2023-01-13T09:36:06.967Z,6.97
2023-01-13T09:38:28.409Z,1.93
2023-01-13T09:40:50.118Z,5.23
2023-01-13T09:43:39.775Z,4.13
2023-01-13T09:46:32.448Z,3.30
2023-01-13T09:48:56.028Z,6.03
2023-01-13T09:51:30.544Z,5.33
2023-01-13T09:53:57.790Z,2.13
2023-01-13T09:56:19.188Z,3.47
2023-01-13T09:58:41.662Z,3.60
2023-01-13T10:01:21.735Z,2.93
2023-01-13T10:03:43.449Z,2.03
2023-01-13T10:06:20.984Z,2.33
2023-01-13T10:08:45.146Z,2.93
2023-01-13T10:11:38.026Z,6.47
2023-01-13T10:14:03.045Z,2.40
2023-01-13T10:16:42.115Z,6.47
2023-01-13T10:19:16.267Z,4.17
2023-01-13T10:21:56.475Z,1.97
2023-01-13T10:24:30.049Z,5.97
2023-01-13T10:27:05.042Z,3.57
2023-01-13T10:29:29.121Z,2.93
2023-01-13T10:31:52.307Z,2.97
2023-01-13T10:34:16.701Z,3.33
2023-01-13T10:36:38.128Z,2.63
2023-01-13T10:39:16.142Z,4.23
2023-01-13T10:41:37.580Z,3.33
2023-01-13T10:44:02.895Z,2.23
2023-01-13T10:46:24.598Z,3.03
2023-01-13T10:48:53.080Z,2.90
2023-01-13T10:51:14.427Z,0.90
2023-01-13T10:53:45.668Z,2.77
2023-01-13T10:56:16.808Z,5.43
2023-01-13T10:58:38.231Z,2.87
2023-01-13T11:01:02.792Z,3.70
2023-01-13T11:03:24.928Z,4.97
2023-01-13T11:05:56.003Z,1.50
2023-01-13T11:08:20.306Z,2.90
2023-01-13T11:10:49.606Z,3.00
2023-01-13T11:13:16.376Z,1.60
2023-01-13T11:15:50.619Z,1.80
2023-01-13T11:18:26.438Z,2.83
2023-01-13T11:20:50.344Z,3.73
2023-01-13T11:23:27.342Z,6.17
2023-01-13T11:25:59.370Z,2.87
2023-01-13T11:28:49.566Z,3.97
2023-01-13T11:31:19.308Z,4.27
2023-01-13T11:33:55.428Z,1.57
2023-01-13T11:36:22.178Z,3.63
2023-01-13T11:38:52.039Z,3.77
2023-01-13T11:41:23.580Z,4.10
2023-01-13T11:43:51.756Z,2.27
2023-01-13T11:46:13.347Z,5.30
2023-01-13T11:48:39.916Z,3.17
2023-01-13T11:51:13.917Z,2.73
2023-01-13T11:54:22.499Z,3.80
2023-01-13T11:56:55.915Z,6.00
2023-01-13T11:59:32.292Z,5.23
2023-01-13T12:02:18.842Z,5.00
2023-01-13T12:05:18.287Z,4.17
2023-01-13T12:08:19.561Z,3.77
2023-01-13T12:11:08.835Z,5.20
2023-01-13T12:13:33.289Z,5.77
2023-01-13T12:16:17.934Z,4.80
2023-01-13T12:18:51.507Z,5.13
2023-01-13T12:21:12.948Z,5.67
2023-01-13T12:23:41.879Z,5.67
2023-01-13T12:26:10.305Z,6.40
2023-01-13T12:29:00.317Z,2.90
2023-01-13T12:31:23.300Z,4.27
2023-01-13T12:33:49.598Z,8.23
2023-01-13T12:36:38.889Z,4.40
2023-01-13T12:39:29.769Z,5.77
2023-01-13T12:42:17.710Z,3.60
2023-01-13T12:45:11.229Z,5.43
2023-01-13T12:47:35.165Z,4.93
2023-01-13T12:50:22.513Z,7.10
2023-01-13T12:52:45.161Z,5.97
2023-01-13T12:55:12.552Z,3.97
2023-01-13T12:57:34.719Z,5.13
2023-01-13T12:59:59.064Z,5.17
2023-01-13T13:02:27.042Z,5.23
2023-01-13T13:04:52.656Z,8.07
2023-01-13T13:07:39.300Z,5.33
2023-01-13T13:10:28.387Z,3.57
2023-01-13T13:13:12.574Z,4.07
2023-01-13T13:15:35.930Z,3.50
2023-01-13T13:18:24.747Z,3.20
2023-01-13T13:21:00.678Z,5.13
2023-01-13T13:23:56.779Z,7.63
2023-01-13T13:26:19.980Z,6.20
2023-01-13T13:29:05.538Z,4.87
2023-01-13T13:31:37.758Z,9.20
2023-01-13T13:34:28.470Z,4.30
2023-01-13T13:37:07.969Z,7.30
2023-01-13T13:39:50.574Z,7.63
2023-01-13T13:42:54.762Z,7.87
2023-01-13T13:45:40.897Z,6.83
2023-01-13T13:48:30.992Z,8.03
2023-01-13T13:50:57.916Z,3.80
2023-01-13T13:53:19.976Z,9.93
2023-01-13T13:55:53.208Z,4.83
2023-01-13T13:58:17.774Z,5.07
2023-01-13T14:00:39.591Z,5.77
2023-01-13T14:03:05.427Z,9.27
2023-01-13T14:05:34.154Z,5.60
2023-01-13T14:08:16.671Z,11.70
2023-01-13T14:10:40.586Z,7.57
2023-01-13T14:13:22.364Z,7.20
2023-01-13T14:15:44.819Z,4.20
2023-01-13T14:18:12.659Z,7.93
2023-01-13T14:20:35.633Z,8.80
2023-01-13T14:23:01.422Z,5.27
2023-01-13T14:25:31.286Z,3.80
2023-01-13T14:27:54.635Z,3.90
2023-01-13T14:30:18.703Z,6.37
2023-01-13T14:32:40.625Z,4.67
2023-01-13T14:35:05.151Z,5.70
2023-01-13T14:37:26.537Z,5.90
2023-01-13T14:39:47.989Z,7.47
2023-01-13T14:42:14.055Z,8.23
2023-01-13T14:44:36.782Z,5.80
2023-01-13T14:47:03.244Z,8.00
2023-01-13T14:49:30.550Z,6.13
2023-01-13T14:51:53.183Z,7.67
2023-01-13T14:54:52.317Z,6.30
2023-01-13T14:57:24.222Z,6.73
2023-01-13T15:00:10.129Z,10.33
2023-01-13T15:02:33.053Z,8.13
2023-01-13T15:04:59.221Z,11.87
2023-01-13T15:07:27.111Z,8.13
2023-01-13T15:09:53.920Z,8.20
2023-01-13T15:12:37.761Z,6.03
2023-01-13T15:15:00.102Z,7.23
2023-01-13T15:17:21.520Z,2.83
2023-01-13T15:19:43.197Z,4.20
2023-01-13T15:22:04.640Z,6.00
2023-01-13T15:24:26.182Z,5.00
2023-01-13T15:26:47.605Z,6.93
2023-01-13T15:29:15.159Z,5.13
2023-01-13T15:31:36.673Z,15.23
2023-01-13T15:34:00.187Z,3.87
2023-01-13T15:36:31.028Z,8.10
2023-01-13T15:38:53.052Z,5.93
2023-01-13T15:41:14.499Z,6.67
2023-01-13T15:43:54.769Z,8.20
2023-01-13T15:46:37.143Z,5.73
2023-01-13T15:49:02.137Z,3.00
2023-01-13T15:51:23.571Z,4.20
2023-01-13T15:53:45.010Z,3.70
2023-01-13T15:56:19.918Z,3.63
2023-01-13T15:58:41.369Z,3.10
2023-01-13T16:01:02.912Z,6.53
2023-01-13T16:03:24.512Z,3.53
2023-01-13T16:05:45.922Z,5.37
2023-01-13T16:08:25.446Z,6.70
2023-01-13T16:10:47.853Z,5.10
2023-01-13T16:13:09.366Z,7.40
2023-01-13T16:15:30.901Z,7.93
2023-01-13T16:18:00.983Z,5.47
2023-01-13T16:20:23.346Z,5.67
2023-01-13T16:22:48.144Z,7.27
2023-01-13T16:25:21.559Z,8.60
2023-01-13T16:27:43.060Z,5.77
2023-01-13T16:30:04.961Z,4.83
2023-01-13T16:32:26.414Z,3.37
2023-01-13T16:34:48.440Z,7.10
2023-01-13T16:37:19.886Z,3.27
2023-01-13T16:39:41.334Z,5.67
2023-01-13T16:42:02.744Z,4.50
2023-01-13T16:44:24.206Z,4.60
2023-01-13T16:46:47.335Z,6.27
2023-01-13T16:49:11.865Z,2.57
2023-01-13T16:51:33.661Z,3.57
2023-01-13T16:53:55.104Z,5.23
2023-01-13T16:56:31.618Z,6.03
2023-01-13T16:58:55.608Z,7.40
2023-01-13T17:01:21.635Z,4.77
2023-01-13T17:03:44.409Z,4.77
2023-01-13T17:06:07.551Z,4.73
2023-01-13T17:08:29.031Z,5.50
2023-01-13T17:10:50.638Z,8.20
2023-01-13T17:13:16.261Z,7.40
2023-01-13T17:15:38.656Z,7.67
2023-01-13T17:18:00.114Z,8.90
2023-01-13T17:20:21.526Z,7.03
2023-01-13T17:22:45.635Z,4.07
2023-01-13T17:25:11.337Z,7.43
2023-01-13T17:27:33.123Z,4.67
2023-01-13T17:29:54.824Z,4.37
2023-01-13T17:32:17.886Z,6.97
2023-01-13T17:34:40.175Z,4.63
2023-01-13T17:37:01.619Z,5.53
2023-01-13T17:39:26.179Z,5.30
2023-01-13T17:41:47.923Z,7.10
2023-01-13T17:44:12.905Z,4.43
2023-01-13T17:46:34.335Z,3.80
2023-01-13T17:48:55.827Z,5.03
2023-01-13T17:51:18.503Z,3.00
2023-01-13T17:53:45.564Z,4.77
2023-01-13T17:56:09.572Z,3.93
2023-01-13T17:58:31.068Z,3.57
2023-01-13T18:00:52.490Z,2.17
2023-01-13T18:03:15.022Z,2.27
2023-01-13T18:05:37.319Z,3.87
2023-01-13T18:07:58.808Z,5.53
2023-01-13T18:10:20.327Z,4.93
2023-01-13T18:12:41.780Z,2.57
2023-01-13T18:15:03.450Z,3.03
2023-01-13T18:17:24.922Z,2.23
2023-01-13T18:20:05.265Z,2.17
2023-01-13T18:22:45.292Z,1.80
2023-01-13T18:25:32.080Z,8.13
2023-01-13T18:27:53.498Z,3.63
2023-01-13T18:30:15.178Z,1.73
2023-01-13T18:32:37.220Z,5.77
2023-01-13T18:35:05.701Z,3.87
2023-01-13T18:37:27.999Z,3.93
2023-01-13T18:39:49.448Z,5.10
2023-01-13T18:42:30.303Z,7.30
2023-01-13T18:44:52.590Z,9.20
2023-01-13T18:47:14.053Z,6.43
2023-01-13T18:49:36.393Z,8.03
2023-01-13T18:51:58.165Z,6.63
2023-01-13T18:54:19.768Z,6.80
2023-01-13T18:56:56.528Z,8.80
2023-01-13T18:59:18.164Z,4.33
2023-01-13T19:01:39.686Z,6.57
2023-01-13T19:04:03.606Z,3.73
2023-01-13T19:06:28.366Z,4.37
2023-01-13T19:08:53.410Z,10.33
2023-01-13T19:11:14.919Z,8.53
2023-01-13T19:13:36.635Z,5.33
2023-01-13T19:16:04.290Z,9.03
2023-01-13T19:18:26.049Z,5.47
2023-01-13T19:20:48.034Z,8.47
2023-01-13T19:23:10.157Z,6.83
2023-01-13T19:25:31.648Z,5.17
2023-01-13T19:27:53.052Z,6.80
2023-01-13T19:30:14.705Z,7.10
2023-01-13T19:32:36.647Z,5.37
2023-01-13T19:34:59.533Z,6.17
2023-01-13T19:37:21.017Z,7.53
2023-01-13T19:39:42.572Z,4.10
2023-01-13T19:42:22.746Z,10.17
2023-01-13T19:45:02.654Z,9.90
2023-01-13T19:47:24.123Z,19.17
2023-01-13T19:49:45.819Z,13.73
2023-01-13T19:52:07.271Z,7.77
2023-01-13T19:54:28.878Z,9.50
2023-01-13T19:56:50.371Z,9.87
2023-01-13T19:59:16.055Z,9.67
2023-01-13T20:01:40.008Z,13.27
2023-01-13T20:04:05.541Z,15.07
2023-01-13T20:06:26.927Z,9.07
2023-01-13T20:08:48.643Z,6.87
2023-01-13T20:11:23.783Z,5.60
2023-01-13T20:13:45.189Z,5.27
2023-01-13T20:16:06.955Z,5.20
2023-01-13T20:18:35.602Z,7.43
2023-01-13T20:20:57.009Z,6.87
2023-01-13T20:23:18.431Z,5.57
2023-01-13T20:25:42.459Z,3.60
2023-01-13T20:28:04.333Z,3.87
2023-01-13T20:30:26.882Z,1.80
2023-01-13T20:32:48.458Z,5.83
2023-01-13T20:35:10.686Z,3.73
2023-01-13T20:37:32.080Z,5.73
2023-01-13T20:39:54.628Z,7.87
2023-01-13T20:42:32.195Z,6.87
2023-01-13T20:44:53.659Z,4.77
2023-01-13T20:47:16.059Z,7.37
2023-01-13T20:49:37.502Z,6.47
2023-01-13T20:51:59.084Z,4.50
2023-01-13T20:54:21.214Z,6.73
2023-01-13T20:56:43.245Z,6.37
2023-01-13T20:59:04.888Z,4.33
2023-01-13T21:01:27.933Z,8.20
2023-01-13T21:03:49.459Z,5.30
2023-01-13T21:06:11.020Z,7.13
2023-01-13T21:08:32.570Z,4.37
2023-01-13T21:11:03.725Z,3.83
2023-01-13T21:13:44.379Z,6.57
2023-01-13T21:16:09.288Z,3.97
2023-01-13T21:18:49.189Z,8.27
2023-01-13T21:21:13.546Z,7.90
2023-01-13T21:23:34.981Z,5.57
2023-01-13T21:25:56.558Z,6.20
2023-01-13T21:28:18.110Z,9.40
2023-01-13T21:30:39.819Z,7.77
2023-01-13T21:33:02.504Z,9.70
2023-01-13T21:35:23.976Z,5.57
2023-01-13T21:37:45.400Z,5.80
2023-01-13T21:40:10.681Z,5.93
2023-01-13T21:42:50.699Z,8.13
2023-01-13T21:45:30.839Z,5.83
2023-01-13T21:47:52.403Z,6.83
2023-01-13T21:50:19.312Z,5.57
2023-01-13T21:52:42.750Z,6.83
2023-01-13T21:55:17.347Z,3.93
2023-01-13T21:57:38.753Z,9.47
2023-01-13T22:00:00.164Z,5.27
2023-01-13T22:02:31.474Z,7.60
2023-01-13T22:04:53.004Z,9.87
2023-01-13T22:07:14.471Z,9.47
2023-01-13T22:09:35.972Z,8.57
2023-01-13T22:11:57.483Z,6.20
2023-01-13T22:14:19.263Z,4.87
2023-01-13T22:16:48.657Z,10.20
2023-01-13T22:19:10.651Z,6.23
2023-01-13T22:21:32.987Z,5.33
2023-01-13T22:23:54.626Z,6.77
2023-01-13T22:26:16.112Z,6.33
2023-01-13T22:28:43.023Z,4.23
2023-01-13T22:31:08.095Z,6.37
2023-01-13T22:33:29.505Z,5.27
2023-01-13T22:35:55.178Z,3.37
2023-01-13T22:38:16.594Z,5.27
2023-01-13T22:40:38.020Z,9.77
2023-01-13T22:42:59.409Z,8.93
2023-01-13T22:45:20.960Z,7.80
2023-01-13T22:47:42.380Z,5.27
2023-01-13T22:50:05.103Z,6.27
2023-01-13T22:52:28.440Z,7.10
2023-01-13T22:54:49.915Z,8.17
2023-01-13T22:57:11.409Z,8.80
2023-01-13T22:59:32.903Z,7.27
2023-01-13T23:01:54.313Z,5.57
2023-01-13T23:04:15.958Z,6.73
2023-01-13T23:06:37.405Z,6.33
2023-01-13T23:08:59.284Z,2.80
2023-01-13T23:11:23.978Z,6.13
2023-01-13T23:13:46.144Z,6.13
2023-01-13T23:16:11.043Z,4.07
2023-01-13T23:18:33.143Z,6.43
2023-01-13T23:20:54.569Z,8.23
2023-01-13T23:23:16.010Z,7.83
2023-01-13T23:25:37.441Z,5.17
2023-01-13T23:27:58.931Z,6.33
2023-01-13T23:30:20.509Z,8.83
2023-01-13T23:32:41.920Z,8.17
2023-01-13T23:35:03.912Z,9.37
2023-01-13T23:37:25.823Z,6.33
2023-01-13T23:39:47.259Z,7.73
2023-01-13T23:42:08.687Z,7.60
2023-01-13T23:44:30.116Z,7.17
2023-01-13T23:46:51.593Z,8.47
2023-01-13T23:49:13.042Z,10.73
2023-01-13T23:51:34.642Z,6.57
2023-01-13T23:53:56.869Z,7.63
2023-01-13T23:56:21.191Z,7.13
2023-01-13T23:58:43.281Z,8.30
